Latest Weather Observations for Rhyll

IDV60901

Issued at 5:51 pm EST Sunday 30 August 2015 (issued every 10 minutes, with the page automatically refreshed every 10 minutes)

About weather observations | Map of Melbourne area stations | Latest observations for Melbourne area | Other Formats
Station Details ID: 086373 Name: RHYLL Lat: -38.46 Lon: 145.31 Height: 13.4 m
Data from the previous 72 hours. | See also: Recent months at Rhyll
Date/Time
EST
Tmp

°C
App
Tmp
°C
Dew
Point
°C
Rel
Hum
%
Delta-T

°C
Wind Press
QNH
hPa
Press
MSL
hPa
Rain
since
9 am
mm
Dir
 
Spd
km/h
Gust
km/h
Spd
kts
Gust
kts
30/05:30pm 9.8 7.5 5.8 76 1.8 SW 7 11 4 6 1023.0 1023.0 0.0
30/05:00pm 10.2 7.5 5.8 74 2.0 SW 9 19 5 10 1023.1 1023.1 0.0
30/04:30pm 10.2 7.3 6.7 79 1.6 SW 11 20 6 11 1023.0 1023.0 0.0
30/04:00pm 10.4 7.4 6.0 74 2.0 SW 11 17 6 9 1023.0 1023.0 0.0
30/03:30pm 10.7 7.7 6.1 73 2.1 SW 11 17 6 9 1023.1 1023.1 0.0
30/03:00pm 10.7 7.7 6.1 73 2.1 SSW 11 20 6 11 1023.4 1023.4 0.0
30/02:30pm 10.8 7.4 5.8 71 2.3 SSW 13 20 7 11 1023.5 1023.5 0.0
30/02:00pm 11.1 8.2 6.5 73 2.2 SSW 11 22 6 12 1023.6 1023.6 0.0
30/01:30pm 11.0 8.1 6.4 73 2.2 SSW 11 20 6 11 1023.6 1023.6 0.0
30/01:00pm 10.8 6.7 6.0 72 2.2 SW 17 24 9 13 1023.7 1023.7 0.0
30/12:30pm 11.0 7.7 6.6 74 2.1 SSW 13 20 7 11 1023.9 1023.9 0.0
30/12:00pm 11.2 8.3 6.5 73 2.2 SSW 11 19 6 10 1024.2 1024.2 0.0
30/11:30am 11.4 8.4 5.9 69 2.6 SSW 11 17 6 9 1024.6 1024.6 0.0
30/11:00am 11.8 8.7 7.1 73 2.2 SSW 13 20 7 11 1024.9 1024.9 0.0
30/10:30am 11.2 8.3 6.7 74 2.1 SSW 11 20 6 11 1024.9 1024.9 0.0
30/10:00am 11.7 8.8 6.6 71 2.4 SSW 11 19 6 10 1025.0 1025.0 0.0
30/09:30am 10.8 8.2 6.0 72 2.2 SSW 9 17 5 9 1025.1 1025.1 0.0
30/09:00am 10.9 8.4 6.6 75 2.0 SW 9 20 5 11 1025.1 1025.1 0.6
30/08:30am 9.7 7.7 6.2 79 1.6 WSW 6 9 3 5 1025.2 1025.2 0.6
30/08:00am 9.6 7.4 6.3 80 1.5 WSW 7 13 4 7 1024.8 1024.8 0.6
30/07:30am 9.2 6.6 6.1 81 1.4 WSW 9 15 5 8 1024.5 1024.5 0.6
30/07:00am 9.0 6.4 6.1 82 1.3 SW 9 13 5 7 1024.3 1024.3 0.6
30/06:30am 9.0 6.9 5.9 81 1.4 WSW 6 7 3 4 1024.0 1024.0 0.6
30/06:00am 9.0 7.0 6.3 83 1.2 WSW 6 9 3 5 1023.7 1023.7 0.6
30/05:30am 9.4 7.3 6.5 82 1.3 WSW 7 11 4 6 1023.6 1023.6 0.6
30/05:00am 9.7 7.8 6.8 82 1.4 WSW 6 9 3 5 1023.5 1023.5 0.6
30/04:30am 9.8 7.9 6.9 82 1.4 W 6 11 3 6 1023.4 1023.4 0.6
30/04:00am 9.7 7.8 6.8 82 1.4 SW 6 9 3 5 1023.6 1023.6 0.6
30/03:30am 9.7 7.7 7.0 83 1.3 SW 7 11 4 6 1023.5 1023.5 0.6
30/03:00am 9.8 7.4 7.1 83 1.3 SW 9 15 5 8 1023.7 1023.7 0.6
30/02:30am 10.0 7.7 7.3 83 1.3 SW 9 17 5 9 1023.8 1023.8 0.6
30/02:00am 10.1 7.4 7.3 83 1.3 SSW 11 19 6 10 1024.0 1024.0 0.6
30/01:30am 10.2 7.1 7.4 83 1.3 SW 13 19 7 10 1024.2 1024.2 0.6
30/01:00am 10.2 7.5 7.3 82 1.4 SSW 11 19 6 10 1024.4 1024.4 0.6
30/12:30am 10.3 6.8 7.0 80 1.6 SSW 15 24 8 13 1024.6 1024.6 0.6
30/12:00am 10.3 6.8 7.4 82 1.4 SSW 15 24 8 13 1024.7 1024.7 0.6
 
Date/Time
EST
Tmp

°C
App
Tmp
°C
Dew
Point
°C
Rel
Hum
%
Delta-T

°C
Wind Press
QNH
hPa
Press
MSL
hPa
Rain
since
9 am
mm
Dir
 
Spd
km/h
Gust
km/h
Spd
kts
Gust
kts
29/11:30pm 10.4 7.3 7.3 81 1.5 SSW 13 20 7 11 1024.7 1024.7 0.6
29/11:00pm 10.3 6.4 7.2 81 1.5 SW 17 26 9 14 1025.0 1025.0 0.6
29/10:30pm 10.5 6.3 7.6 82 1.4 SSW 19 33 10 18 1025.0 1025.0 0.6
29/10:00pm 10.6 6.4 7.3 80 1.6 SSW 19 32 10 17 1025.1 1025.1 0.6
29/09:30pm 10.7 6.3 7.2 79 1.7 SSW 20 35 11 19 1025.0 1025.0 0.6
29/09:00pm 10.7 6.2 7.0 78 1.7 SSW 20 32 11 17 1025.1 1025.1 0.6
29/08:30pm 10.7 6.2 7.0 78 1.8 SSW 20 35 11 19 1025.0 1025.0 0.6
29/08:00pm 10.4 6.0 7.6 83 1.3 SSW 20 39 11 21 1024.8 1024.8 0.6
29/07:30pm 10.7 6.5 7.4 80 1.6 SW 19 32 10 17 1024.7 1024.7 0.6
29/07:00pm 10.5 6.1 7.6 82 1.4 SSW 20 33 11 18 1024.7 1024.7 0.6
29/06:30pm 10.9 6.2 7.6 80 1.6 SSW 22 37 12 20 1024.4 1024.4 0.6
29/06:00pm 10.9 6.5 7.6 80 1.6 SW 20 33 11 18 1024.2 1024.2 0.6
29/05:30pm 10.8 6.1 7.9 82 1.4 SSW 22 37 12 20 1024.0 1024.0 0.6
29/05:00pm 11.1 6.5 8.0 81 1.5 SW 22 37 12 20 1023.9 1023.9 0.6
29/04:30pm 10.5 6.5 8.3 86 1.1 SW 19 32 10 17 1023.9 1023.9 0.6
29/04:00pm 11.2 7.6 8.2 82 1.5 SW 17 33 9 18 1023.8 1023.8 0.6
29/03:30pm 11.2 6.9 7.9 80 1.6 SW 20 35 11 19 1023.9 1023.9 0.6
29/03:00pm 10.6 5.6 8.0 84 1.3 SSW 24 39 13 21 1023.9 1023.9 0.6
29/02:30pm 11.0 7.0 8.9 87 1.0 SW 20 32 11 17 1024.0 1024.0 0.6
29/02:00pm 11.5 7.1 8.9 84 1.3 SW 22 33 12 18 1024.0 1024.0 0.6
29/01:30pm 10.7 5.8 8.6 87 1.0 SW 24 39 13 21 1024.1 1024.1 0.6
29/01:00pm 10.3 6.3 9.1 92 0.6 SW 20 33 11 18 1024.4 1024.4 0.6
29/12:30pm 10.1 5.7 9.0 93 0.5 SW 22 37 12 20 1024.8 1024.8 0.6
29/12:00pm 10.2 5.3 8.3 88 0.9 SW 24 41 13 22 1025.0 1025.0 0.4
29/11:30am 10.0 5.0 8.1 88 0.9 SW 24 39 13 21 1025.4 1025.4 0.2
29/11:00am 9.8 5.4 7.6 86 1.0 SW 20 35 11 19 1025.3 1025.3 0.2
29/10:30am 9.6 5.4 8.2 91 0.7 SW 20 35 11 19 1025.4 1025.4 0.2
29/10:00am 9.9 5.5 7.3 84 1.2 SW 20 35 11 19 1025.5 1025.5 0.0
29/09:30am 9.2 4.8 6.5 83 1.3 WSW 19 32 10 17 1025.6 1025.6 0.0
29/09:00am 8.6 3.2 6.2 85 1.1 SW 24 43 13 23 1025.8 1025.8 0.2
29/08:30am 9.5 5.0 5.9 78 1.7 SW 19 32 10 17 1025.8 1025.8 0.2
29/08:00am 8.0 4.5 5.6 85 1.1 WSW 13 26 7 14 1025.9 1025.9 0.2
29/07:30am 7.3 3.9 5.9 91 0.6 WSW 13 24 7 13 1025.7 1025.7 0.2
29/07:00am 7.3 4.4 4.8 84 1.1 WSW 9 15 5 8 1025.5 1025.5 0.0
29/06:30am 8.6 3.5 3.2 69 2.3 SW 19 30 10 16 1025.4 1025.4 0.0
29/06:00am 8.6 3.5 3.2 69 2.3 SW 19 32 10 17 1025.3 1025.3 0.0
29/05:30am 8.5 3.7 2.7 67 2.4 SSW 17 32 9 17 1025.3 1025.3 0.0
29/05:00am 8.2 3.3 2.0 65 2.5 SSW 17 32 9 17 1025.3 1025.3 0.0
29/04:30am 8.3 4.4 3.2 70 2.2 SSW 13 24 7 13 1025.3 1025.3 0.0
29/04:00am 8.3 4.3 3.0 69 2.2 S 13 22 7 12 1025.4 1025.4 0.0
29/03:30am 8.2 3.1 2.9 69 2.2 S 19 26 10 14 1025.4 1025.4 0.0
29/03:00am 8.3 3.0 2.1 65 2.6 S 19 35 10 19 1025.5 1025.5 0.0
29/02:30am 8.4 3.5 2.2 65 2.6 S 17 24 9 13 1025.7 1025.7 0.0
29/02:00am 8.6 3.7 2.2 64 2.7 S 17 30 9 16 1025.9 1025.9 0.0
29/01:30am 9.0 4.7 3.0 66 2.6 S 15 22 8 12 1026.0 1026.0 0.0
29/01:00am 9.1 4.7 4.5 73 2.0 S 17 22 9 12 1026.0 1026.0 0.0
29/12:30am 8.6 4.3 5.4 80 1.4 SSE 17 26 9 14 1025.9 1025.9 0.0
29/12:00am 9.1 5.4 4.5 73 2.0 SSW 13 24 7 13 1025.9 1025.9 0.0
 
Date/Time
EST
Tmp

°C
App
Tmp
°C
Dew
Point
°C
Rel
Hum
%
Delta-T

°C
Wind Press
QNH
hPa
Press
MSL
hPa
Rain
since
9 am
mm
Dir
 
Spd
km/h
Gust
km/h
Spd
kts
Gust
kts
28/11:30pm 8.5 5.9 4.1 74 1.9 SSE 7 13 4 7 1026.0 1026.0 0.0
28/11:00pm 8.2 4.0 5.5 83 1.2 SSE 17 26 9 14 1026.3 1026.3 0.0
28/10:30pm 8.4 5.0 6.0 85 1.1 SSE 13 17 7 9 1026.2 1026.2 0.0
28/10:00pm 9.0 6.1 6.3 83 1.2 S 11 19 6 10 1026.2 1026.2 0.0
28/09:30pm 9.4 7.4 6.1 80 1.5 SSE 6 15 3 8 1026.0 1026.0 0.0
28/09:00pm 9.3 6.1 5.1 75 1.9 SW 11 15 6 8 1025.8 1025.8 0.0
28/08:30pm 9.5 6.0 5.5 76 1.8 SW 13 19 7 10 1025.6 1025.6 0.0
28/08:00pm 9.1 6.8 5.8 80 1.5 SW 7 17 4 9 1025.4 1025.4 0.0
28/07:30pm 8.1 5.7 5.4 83 1.2 W 7 9 4 5 1025.3 1025.3 0.0
28/07:00pm 8.4 6.0 5.3 81 1.4 W 7 9 4 5 1025.3 1025.3 0.0
28/06:30pm 9.0 6.7 5.6 79 1.5 WSW 7 13 4 7 1025.1 1025.1 0.0
28/06:00pm 9.2 6.9 5.8 79 1.5 SW 7 15 4 8 1024.9 1024.9 0.0
28/05:30pm 9.7 7.1 6.1 78 1.7 SW 9 13 5 7 1024.7 1024.7 0.0
28/05:00pm 10.2 7.5 5.8 74 2.0 SW 9 17 5 9 1024.5 1024.5 0.0
28/04:30pm 10.8 7.8 5.8 71 2.3 SW 11 15 6 8 1024.4 1024.4 0.0
28/04:00pm 11.3 8.3 6.0 70 2.5 SSW 11 17 6 9 1024.5 1024.5 0.0
28/03:30pm 11.3 7.2 6.2 71 2.4 SW 17 22 9 12 1024.6 1024.6 0.0
28/03:00pm 11.3 7.0 7.2 76 2.0 SW 19 28 10 15 1024.5 1024.5 0.0
28/02:30pm 12.0 9.3 7.5 74 2.2 SSW 11 19 6 10 1024.5 1024.5 0.0
28/02:00pm 12.4 9.4 7.7 73 2.3 S 13 26 7 14 1024.4 1024.4 0.0
28/01:30pm 12.6 9.4 8.3 75 2.1 SSW 15 24 8 13 1024.5 1024.5 0.0
28/01:00pm 12.7 9.9 8.6 76 2.0 SSW 13 20 7 11 1024.6 1024.6 0.0
28/12:30pm 12.7 9.8 8.2 74 2.2 SSW 13 22 7 12 1025.0 1025.0 0.0
28/12:00pm 12.3 8.2 8.0 75 2.1 SSW 19 32 10 17 1025.3 1025.3 0.0
28/11:30am 12.4 9.5 8.1 75 2.1 S 13 22 7 12 1025.5 1025.5 0.0
28/11:00am 12.8 9.6 8.3 74 2.2 SSW 15 26 8 14 1025.6 1025.6 0.0
28/10:30am 12.7 9.9 8.4 75 2.1 S 13 24 7 13 1025.6 1025.6 0.0
28/10:00am 11.4 7.1 6.9 74 2.1 SSW 19 30 10 16 1025.5 1025.5 0.0
28/09:30am 11.2 6.9 6.9 75 2.0 S 19 32 10 17 1025.3 1025.3 0.0
28/09:00am 11.2 6.9 6.9 75 2.0 SSW 19 30 10 16 1025.2 1025.2 8.2
28/08:30am 11.0 6.6 6.7 75 2.0 SSW 19 35 10 19 1025.0 1025.0 8.2
28/08:00am 10.8 6.5 6.9 77 1.8 SSW 19 37 10 20 1024.7 1024.7 8.2
28/07:30am 10.7 6.2 7.0 78 1.8 SSW 20 32 11 17 1024.4 1024.4 8.2
28/07:00am 10.4 6.2 7.3 81 1.5 SW 19 32 10 17 1024.2 1024.2 8.2
28/06:30am 10.5 6.1 6.6 77 1.8 SSW 19 30 10 16 1024.0 1024.0 8.2
28/06:00am 10.4 6.7 6.5 77 1.8 SW 15 22 8 12 1023.8 1023.8 8.2
28/05:30am 10.2 6.5 6.4 77 1.8 SW 15 26 8 14 1023.6 1023.6 8.2
28/05:00am 10.0 5.9 6.2 77 1.8 SW 17 28 9 15 1023.4 1023.4 8.2
28/04:30am 10.1 5.5 6.3 77 1.8 SW 20 32 11 17 1023.1 1023.1 8.2
28/04:00am 10.2 6.2 6.5 78 1.7 SSW 17 32 9 17 1022.9 1022.9 8.2
28/03:30am 10.2 6.1 6.2 76 1.9 SSW 17 28 9 15 1022.9 1022.9 8.2
28/03:00am 10.4 6.8 6.9 79 1.6 SSW 15 26 8 14 1023.1 1023.1 8.2
28/02:30am 10.4 6.7 6.5 77 1.8 SSW 15 22 8 12 1023.2 1023.2 8.2
28/02:00am 10.5 6.4 6.3 75 1.9 SSW 17 30 9 16 1023.4 1023.4 8.2
28/01:30am 10.6 7.0 6.7 77 1.8 SSW 15 30 8 16 1023.4 1023.4 8.2
28/01:00am 10.5 6.5 6.6 77 1.8 SSW 17 32 9 17 1023.2 1023.2 8.2
28/12:30am 10.6 6.1 7.1 79 1.7 SSW 20 32 11 17 1023.0 1023.0 8.2
28/12:00am 10.7 6.1 6.5 75 2.0 SSW 20 37 11 20 1023.0 1023.0 8.2
 
Date/Time
EST
Tmp

°C
App
Tmp
°C
Dew
Point
°C
Rel
Hum
%
Delta-T

°C
Wind Press
QNH
hPa
Press
MSL
hPa
Rain
since
9 am
mm
Dir
 
Spd
km/h
Gust
km/h
Spd
kts
Gust
kts
27/11:30pm 10.7 6.2 6.8 77 1.8 SSW 20 33 11 18 1022.9 1022.9 8.2
27/11:00pm 10.7 6.3 7.2 79 1.7 SSW 20 30 11 16 1022.9 1022.9 8.2
27/10:30pm 10.8 6.7 7.9 82 1.4 SSW 19 30 10 16 1022.8 1022.8 8.2
27/10:00pm 10.9 7.2 8.1 83 1.4 SSW 17 30 9 16 1022.7 1022.7 8.2
27/09:30pm 10.7 7.6 8.8 88 0.9 SSW 15 24 8 13 1022.6 1022.6 8.2
27/09:00pm 10.7 7.3 9.0 89 0.8 SSW 17 26 9 14 1022.5 1022.5 8.2
27/08:30pm 10.7 7.0 9.5 92 0.6 SSW 19 33 10 18 1022.3 1022.3 8.2
27/08:00pm 11.2 8.6 10.7 97 0.3 S 15 28 8 15 1022.0 1022.0 8.2
27/07:30pm 11.1 8.9 10.9 99 0.1 S 13 20 7 11 1021.8 1021.8 8.2
27/07:00pm 11.1 8.9 10.9 99 0.1 S 13 17 7 9 1021.6 1021.6 8.2
27/06:30pm 11.4 9.3 11.2 99 0.1 SSE 13 20 7 11 1021.2 1021.2 8.0
27/06:00pm 11.4 8.6 11.2 99 0.1 SSE 17 24 9 13 1020.9 1020.9 8.0

Latest Capital City Observations: Canberra | Sydney | Melbourne | Brisbane | Adelaide | Perth | Hobart | Darwin

Other Formats:

Comma delimited format used in spreadsheet applications
http://www.bom.gov.au/fwo/IDV60901/IDV60901.94892.axf

JavaScript Object Notation format (JSON) in row-major order
http://www.bom.gov.au/fwo/IDV60901/IDV60901.94892.json